AirNav   Duncan Aviation - Near you to keep you flying
 
 1274 users online  

8OK1 Warbonnet Airport
Blanchard, Oklahoma, USA

GOING TO BLANCHARD?


FAA INFORMATION EFFECTIVE 01 DECEMBER 2022

Location

FAA Identifier: 8OK1
Lat/Long: 35-10-06.0000N 097-42-39.0000W
35-10.100000N 097-42.650000W
35.1683333,-97.7108333
(estimated)
Elevation: 1335 ft. / 407 m (estimated)
Variation: 07E (1990)
From city: 3 miles NW of BLANCHARD, OK
Time zone: UTC -6 (UTC -5 during Daylight Saving Time)
Zip code: 73010

Airport Operations

Airport use: Private use. Permission required prior to landing
Activation date: 12/1992
Control tower: no
ARTCC: FORT WORTH CENTER
FSS: MC ALESTER FLIGHT SERVICE STATION
Attendance: UNATNDD
Segmented circle: no

Airport Communications

WX AWOS-3 at OUN (13 nm E): 119.55 (405-325-7302)
WX AWOS-3 at CHK (13 nm W): 118.175 (405-574-1016)
WX ASOS at OKC (15 nm N): PHONE 405-686-4711
WX AWOS-3 at RCE (20 nm N): 125.05 (405-354-2617)

Nearby radio navigation aids

VOR radial/distance  VOR name  Freq  Var
IRWr197/12.5WILL ROGERS VORTAC114.1007E
PWAr180/22.1WILEY POST VOR/DME113.4008E

 
NDB name  Hdg/Dist  Freq  Var  ID
GALLY213/9.735005ERG .-. --.

Airport Services

Runway Information

Runway 2/20

Dimensions: 1700 x 60 ft. / 518 x 18 m
Surface: turf
RUNWAY 2  RUNWAY 20
Traffic pattern: leftleft

Runway 4/22

Dimensions: 600 x 40 ft. / 183 x 12 m
Surface: turf
RUNWAY 4  RUNWAY 22
Traffic pattern: leftleft

Airport Ownership and Management from official FAA records

Ownership: Privately-owned
Owner: ROBERT VANCE
1554 COUNTY ST 2970
BLANCHARD, OK 73010
Phone 970-685-2222
Manager: ROBERT VANCE
1554 COUNTY ST 2970
BLANCHARD, OK 73010
Phone 970-685-2222

Airport Operational Statistics

Aircraft based on the field: 1
Single engine airplanes: 1
    

Additional Remarks

RY 02 POWER LINE ACROSS RY 400 FT AFT THLD. MKD WITH OBSTRUCTION BALLS.
FOR CD CTC OKE CITY APCH AT 405-681-5683.

Instrument Procedures

There are no published instrument procedures at 8OK1.

Some nearby airports with instrument procedures:

1K4 - David Jay Perry Airport (12 nm E)
KOUN - University of Oklahoma Westheimer Airport (13 nm E)
KCHK - Chickasha Municipal Airport (13 nm W)
KOKC - Will Rogers World Airport (15 nm N)
KRCE - Clarence E Page Municipal Airport (20 nm N)
 
Loc | Ops | Rwys | IFR | FBO | Links
Com | Nav | Svcs | Stats | Notes
Area around 8OK1 (Warbonnet Airport)
 
Road maps at: MapQuest Bing Google
 
Aerial photo
No photo
 
Sectional chart

 
Airport distance calculator
Flying to Warbonnet Airport? Find the distance to fly.

From to 8OK1

Sunrise and sunset
Times for 02-Dec-2022
 Local
(UTC-6)
 Zulu
(UTC)
Morning civil twilight06:5512:55
Sunrise07:2313:23
Sunset17:1823:18
Evening civil twilight17:4623:46

Current date and time
Zulu (UTC)  02-Dec-2022 15:18:09
Local (UTC-6)  02-Dec-2022 09:18:09
 
METAR
KOUN 
13nm E 
021445Z 17016G22KT 1 3/4SM BR OVC003 09/09 A2995
KCHK 
13nm W 
021450Z AUTO 19013KT 7SM OVC005 11/10 A2994 RMK AO2 T01110104
KOKC 
14nm NE 
021452Z 18017KT 2SM -DZ BR OVC003 09/09 A2995 RMK AO2 TWR VIS 2 1/2 SLP143 P0000 60000 T00940094 58005
KRCE 
20nm N 
021455Z AUTO 19018G24KT 2 1/2SM BR OVC004 10/10 A2993 RMK AO2
KPWA 
22nm N 
021453Z 19021G26KT 4SM BR OVC005 11/09 A2993 RMK AO2 PK WND 19031/1422 SLP136 T01110094 58006
KTIK 
22nm NE 
021455Z AUTO 19020G24KT 4SM BR OVC004 10/09 A2992 RMK AO2 PK WND 20026/43 CIG 003 RWY13 SLP140 T00950093 56008
KHSD 
26nm N 
021455Z AUTO 19025G30KT 6SM BR SCT006 11/10 A2990 RMK A01
TAF
KOUN 
13nm E 
021120Z 0212/0312 17017G23KT 3SM BR OVC005 TEMPO 0212/0216 2SM -DZ BR OVC003 FM021600 20020G29KT 6SM BR OVC010 FM022000 20020G26KT P6SM SCT200 FM030500 35018G34KT P6SM FEW250 WS020/36055KT
KOKC 
14nm NE 
021120Z 0212/0312 17016G24KT 2SM BR OVC003 TEMPO 0212/0216 2SM -DZ BR OVC003 FM021600 20021G30KT 6SM BR BKN010 FM021900 21019G29KT P6SM SCT200 FM030400 33014G35KT P6SM BKN250 WS020/33060KT
NOTAMs
Click for the latest NOTAMs
NOTAMs are issued by the DoD/FAA and will open in a separate window not controlled by AirNav.

 

 
 

Would you like to see your business listed on this page?

 If your business provides an interesting product or service to pilots, flight crews, aircraft, or users of the Warbonnet Airport, you should consider listing it here.  To start the listing process, click on the button below
 
Add a business
 

Other Pages about Warbonnet Airport

Update a link
 
Copyright © AirNav, LLC. All rights reserved. Privacy Policy  Contact